Time;durP1;ratioP1;P1;durP2;ratioP2;P2;SDS_P1;SDS_P2;PMS_P1;PMS_P2;Temp;Humidity;BMP_temperature;BMP_pressure;BME280_temperature;BME280_humidity;BME280_pressure;Samples;Min_cycle;Max_cycle;Signal;HPM_P1;HPM_P2
2022/04/09 00:02:20;;;;;;;8.17;1.97;;;4.10;99.90;;;;;;5025386;28;20046;-49
2022/04/09 00:04:46;;;;;;;12.37;2.00;;;4.00;99.90;;;;;;5024328;28;20034;-49
2022/04/09 00:07:12;;;;;;;10.25;1.52;;;4.00;99.90;;;;;;5024303;28;20034;-51
2022/04/09 00:09:38;;;;;;;21.70;3.27;;;3.90;99.90;;;;;;5024413;28;20036;-48
2022/04/09 00:12:03;;;;;;;9.63;1.27;;;3.90;99.90;;;;;;5024524;28;20041;-50
2022/04/09 00:14:29;;;;;;;7.28;1.42;;;3.80;99.90;;;;;;5024949;28;20096;-48
2022/04/09 00:16:55;;;;;;;6.13;1.40;;;3.70;99.90;;;;;;5024528;28;20117;-48
2022/04/09 00:19:20;;;;;;;12.83;2.03;;;3.70;99.90;;;;;;5028231;28;20414;-51
2022/04/09 00:21:46;;;;;;;14.40;1.47;;;3.60;99.90;;;;;;5034861;28;20498;-49
2022/04/09 00:24:12;;;;;;;7.37;1.10;;;3.60;99.90;;;;;;5027522;28;20083;-49
2022/04/09 00:26:38;;;;;;;10.07;1.30;;;3.60;99.90;;;;;;5026233;28;20491;-48
2022/04/09 00:29:04;;;;;;;7.60;2.25;;;3.50;99.90;;;;;;5027269;28;20156;-51
2022/04/09 00:31:30;;;;;;;12.93;2.67;;;3.60;99.90;;;;;;5027735;28;20510;-50
2022/04/09 00:33:55;;;;;;;12.30;1.27;;;3.60;99.90;;;;;;5028151;28;20124;-48
2022/04/09 00:36:21;;;;;;;5.80;1.43;;;3.50;99.90;;;;;;5027925;28;20041;-48
2022/04/09 00:38:47;;;;;;;13.77;1.57;;;3.50;99.90;;;;;;5027983;28;20502;-48
2022/04/09 00:41:12;;;;;;;14.05;2.47;;;3.50;99.90;;;;;;5027508;28;20103;-48
2022/04/09 00:43:40;;;;;;;14.03;2.43;;;3.50;99.90;;;;;;5028643;28;20088;-50
2022/04/09 00:46:06;;;;;;;10.80;1.33;;;3.50;99.90;;;;;;5026388;28;20042;-48
2022/04/09 00:48:31;;;;;;;10.60;1.77;;;3.50;99.90;;;;;;5027764;28;20033;-48
2022/04/09 00:50:57;;;;;;;7.80;1.60;;;3.50;99.90;;;;;;5028202;28;20112;-49
2022/04/09 00:53:24;;;;;;;7.60;1.27;;;3.60;99.90;;;;;;5029414;28;20041;-51
2022/04/09 00:58:38;;;;;;;10.80;1.45;;;3.60;99.90;;;;;;5040498;28;20483;-50
2022/04/09 01:01:04;;;;;;;12.68;1.00;;;3.60;99.90;;;;;;5030265;28;20048;-48
2022/04/09 01:03:33;;;;;;;9.38;1.50;;;3.60;99.90;;;;;;5046036;28;20434;-49
2022/04/09 01:05:59;;;;;;;11.18;1.45;;;3.60;99.90;;;;;;5035497;28;20124;-49
2022/04/09 01:08:25;;;;;;;14.88;1.42;;;3.60;99.90;;;;;;5051303;28;20119;-49
2022/04/09 01:10:50;;;;;;;13.27;1.97;;;3.60;99.90;;;;;;5045168;28;20029;-49
2022/04/09 01:13:17;;;;;;;12.70;1.60;;;3.60;99.90;;;;;;5030941;28;20041;-49
2022/04/09 01:15:43;;;;;;;14.35;1.65;;;3.60;99.90;;;;;;5032308;28;20095;-49
2022/04/09 01:18:09;;;;;;;13.63;1.87;;;3.50;99.90;;;;;;5032479;28;20450;-50
2022/04/09 01:20:35;;;;;;;12.98;1.63;;;3.60;99.90;;;;;;5033333;28;20103;-51
2022/04/09 01:23:00;;;;;;;8.00;1.45;;;3.60;99.90;;;;;;5037771;28;20044;-49
2022/04/09 01:25:26;;;;;;;12.47;1.43;;;3.60;99.90;;;;;;5051673;28;20497;-51
2022/04/09 01:27:52;;;;;;;11.33;2.80;;;3.60;99.90;;;;;;5047829;28;20116;-52
2022/04/09 01:30:18;;;;;;;9.48;1.83;;;3.70;99.90;;;;;;5041314;28;20536;-51
2022/04/09 01:32:44;;;;;;;13.85;1.58;;;3.70;99.90;;;;;;5049229;28;20087;-50
2022/04/09 01:35:10;;;;;;;13.45;1.80;;;3.70;99.90;;;;;;5031834;28;20037;-49
2022/04/09 01:37:36;;;;;;;16.70;1.80;;;3.70;99.90;;;;;;5033281;28;20052;-51
2022/04/09 01:40:01;;;;;;;10.93;1.70;;;3.70;99.90;;;;;;5049917;28;20553;-49
2022/04/09 01:42:27;;;;;;;13.50;1.30;;;3.80;99.90;;;;;;5050172;28;20418;-51
2022/04/09 01:44:53;;;;;;;10.80;1.90;;;3.70;99.90;;;;;;5031900;28;20505;-51
2022/04/09 01:47:18;;;;;;;11.27;2.88;;;3.80;99.90;;;;;;5039326;28;20041;-50
2022/04/09 01:49:44;;;;;;;16.33;2.47;;;3.80;99.90;;;;;;5050245;28;20037;-49
2022/04/09 01:52:10;;;;;;;12.10;2.43;;;3.90;99.90;;;;;;5051747;28;20120;-49
2022/04/09 01:54:35;;;;;;;8.80;2.47;;;3.90;99.90;;;;;;5049432;28;20040;-51
2022/04/09 01:57:01;;;;;;;12.47;1.97;;;3.90;99.90;;;;;;5050771;28;20041;-50
2022/04/09 01:59:27;;;;;;;9.88;2.00;;;4.00;99.90;;;;;;5041353;28;20041;-49
2022/04/09 02:01:52;;;;;;;10.50;1.73;;;4.00;99.90;;;;;;5032946;28;20034;-49
2022/04/09 02:04:18;;;;;;;5.67;1.37;;;4.00;99.90;;;;;;5047596;28;20036;-48
2022/04/09 02:06:44;;;;;;;5.73;1.40;;;4.10;99.90;;;;;;5051003;28;20041;-48
2022/04/09 02:09:12;;;;;;;9.50;1.20;;;4.10;99.90;;;;;;5035860;28;20052;-49
2022/04/09 02:11:39;;;;;;;9.15;2.20;;;4.10;99.90;;;;;;5042167;28;20380;-49
2022/04/09 02:14:07;;;;;;;12.70;1.52;;;4.10;99.90;;;;;;5051253;28;20052;-50
2022/04/09 02:16:33;;;;;;;8.88;1.08;;;4.10;99.90;;;;;;5041579;28;20120;-49
2022/04/09 02:18:59;;;;;;;10.32;1.40;;;4.00;99.90;;;;;;5030044;28;20133;-50
2022/04/09 02:21:24;;;;;;;12.40;1.10;;;3.90;99.90;;;;;;5032798;28;20494;-49
2022/04/09 02:23:50;;;;;;;11.97;0.90;;;3.90;99.90;;;;;;5031030;28;20048;-48
2022/04/09 02:26:15;;;;;;;9.00;1.33;;;3.80;99.90;;;;;;5037325;28;20452;-49
2022/04/09 02:28:41;;;;;;;8.47;1.73;;;3.80;99.90;;;;;;5051100;28;20087;-48
2022/04/09 02:31:07;;;;;;;8.90;1.13;;;3.70;99.90;;;;;;5048424;28;20172;-51
2022/04/09 02:33:33;;;;;;;12.48;1.88;;;3.60;99.90;;;;;;5050629;28;20132;-49
2022/04/09 02:35:59;;;;;;;10.73;1.30;;;3.60;99.90;;;;;;5036686;28;20231;-48
2022/04/09 02:38:25;;;;;;;7.07;0.93;;;3.60;99.90;;;;;;5030838;28;20434;-49
2022/04/09 02:40:50;;;;;;;5.68;0.65;;;3.50;99.90;;;;;;5041580;28;20059;-50
2022/04/09 02:43:16;;;;;;;6.60;0.70;;;3.50;99.90;;;;;;5049925;28;20037;-49
2022/04/09 02:45:42;;;;;;;8.17;1.17;;;3.40;99.90;;;;;;5041359;28;20046;-49
2022/04/09 02:48:08;;;;;;;7.82;1.45;;;3.40;99.90;;;;;;5030860;28;20045;-50
2022/04/09 02:50:33;;;;;;;6.57;1.47;;;3.30;99.90;;;;;;5037879;28;20059;-48
2022/04/09 02:52:59;;;;;;;6.13;1.43;;;3.30;99.90;;;;;;5038542;28;20042;-48
2022/04/09 02:55:24;;;;;;;6.43;0.40;;;3.30;99.90;;;;;;5031185;28;20085;-49
2022/04/09 02:57:50;;;;;;;9.67;1.27;;;3.20;99.90;;;;;;5030642;28;20120;-49
2022/04/09 03:00:16;;;;;;;2.07;0.67;;;3.20;99.90;;;;;;5036324;28;20501;-48
2022/04/09 03:02:42;;;;;;;;;;;3.20;99.90;;;;;;5043051;28;20061;-49
2022/04/09 03:05:09;;;;;;;7.72;0.85;;;3.20;99.90;;;;;;5033749;28;19920;-49
2022/04/09 03:07:34;;;;;;;;;;;3.20;99.90;;;;;;5050428;28;20032;-49
2022/04/09 03:10:00;;;;;;;5.95;0.50;;;3.10;99.90;;;;;;5047060;28;20599;-49
2022/04/09 03:12:26;;;;;;;11.77;0.82;;;3.10;99.90;;;;;;5030383;28;20124;-49
2022/04/09 03:14:51;;;;;;;10.10;1.07;;;3.10;99.90;;;;;;5049828;28;20047;-49
2022/04/09 03:17:17;;;;;;;2.93;0.57;;;3.10;99.90;;;;;;5049935;28;20052;-52
2022/04/09 03:19:43;;;;;;;5.65;0.82;;;3.10;99.90;;;;;;5049821;28;20056;-48
2022/04/09 03:22:08;;;;;;;4.87;1.20;;;3.10;99.90;;;;;;5049722;28;20049;-48
2022/04/09 03:24:34;;;;;;;6.77;0.60;;;3.00;99.90;;;;;;5048093;28;20071;-48
2022/04/09 03:27:00;;;;;;;6.60;0.63;;;3.00;99.90;;;;;;5049944;28;20044;-49
2022/04/09 03:29:25;;;;;;;8.30;1.00;;;3.10;99.90;;;;;;5034092;28;20763;-49
2022/04/09 03:31:51;;;;;;;6.47;0.70;;;3.10;99.90;;;;;;5030089;28;20040;-50
2022/04/09 03:34:17;;;;;;;8.17;1.00;;;3.10;99.90;;;;;;5044873;28;20037;-52
2022/04/09 03:36:42;;;;;;;8.40;0.50;;;3.10;99.90;;;;;;5049373;28;20033;-48
2022/04/09 03:39:08;;;;;;;3.50;0.63;;;3.10;99.90;;;;;;5036062;28;20422;-51
2022/04/09 03:41:34;;;;;;;12.60;2.45;;;3.10;99.90;;;;;;5030237;28;20045;-50
2022/04/09 03:44:00;;;;;;;11.50;1.00;;;3.20;99.90;;;;;;5041373;28;20048;-49
2022/04/09 03:46:25;;;;;;;2.90;0.70;;;3.20;99.90;;;;;;5049560;28;20037;-49
2022/04/09 03:48:51;;;;;;;5.40;0.70;;;3.20;99.90;;;;;;5048066;28;20098;-49
2022/04/09 03:51:16;;;;;;;11.20;0.90;;;3.20;99.90;;;;;;5049760;28;20048;-52
2022/04/09 03:53:42;;;;;;;9.37;0.73;;;3.20;99.90;;;;;;5041153;28;20033;-48
2022/04/09 03:56:07;;;;;;;6.93;0.77;;;3.20;99.90;;;;;;5033695;28;20041;-49
2022/04/09 03:58:36;;;;;;;4.23;0.80;;;3.20;99.90;;;;;;5034885;28;20128;-49
2022/04/09 04:01:01;;;;;;;3.72;0.32;;;3.30;99.90;;;;;;5035347;28;20453;-49
2022/04/09 04:03:28;;;;;;;6.30;0.67;;;3.30;99.90;;;;;;5049572;28;20048;-48
2022/04/09 04:05:53;;;;;;;3.60;1.40;;;3.20;99.90;;;;;;5052040;28;20041;-48
2022/04/09 04:08:19;;;;;;;3.20;0.50;;;3.20;99.90;;;;;;5034594;28;20522;-49
2022/04/09 04:10:45;;;;;;;3.73;0.40;;;3.20;99.90;;;;;;5033751;28;20050;-48
2022/04/09 04:13:11;;;;;;;5.23;0.30;;;3.20;99.90;;;;;;5052038;28;20072;-48
2022/04/09 04:15:37;;;;;;;3.08;0.60;;;3.20;99.90;;;;;;5053672;28;20049;-49
2022/04/09 04:18:03;;;;;;;2.57;0.50;;;3.10;99.90;;;;;;5036537;28;20106;-49
2022/04/09 04:20:29;;;;;;;5.13;0.60;;;3.10;99.90;;;;;;5034908;28;20114;-50
2022/04/09 04:22:54;;;;;;;6.25;0.63;;;3.10;99.90;;;;;;5033714;28;20478;-48
2022/04/09 04:25:21;;;;;;;4.47;0.52;;;3.10;99.90;;;;;;5044588;28;20128;-48
2022/04/09 04:27:49;;;;;;;3.53;1.23;;;3.10;99.90;;;;;;5053647;28;20075;-48
2022/04/09 04:30:15;;;;;;;8.02;0.65;;;3.10;99.90;;;;;;5043377;28;20041;-48
2022/04/09 04:32:42;;;;;;;6.55;0.77;;;3.10;99.90;;;;;;5047041;28;20029;-48
2022/04/09 04:35:08;;;;;;;5.78;0.65;;;3.20;99.90;;;;;;5034403;28;20103;-48
2022/04/09 04:37:43;;;;;;;20.45;1.80;;;3.20;99.90;;;;;;5053070;28;20123;-48
2022/04/09 04:40:11;;;;;;;8.23;0.75;;;3.20;99.90;;;;;;5050220;28;20517;-49
2022/04/09 04:42:36;;;;;;;5.22;0.60;;;3.20;99.90;;;;;;5052974;28;20530;-48
2022/04/09 04:45:04;;;;;;;6.07;0.80;;;3.20;99.90;;;;;;5040699;28;20041;-48
2022/04/09 04:47:29;;;;;;;6.13;0.60;;;3.20;99.90;;;;;;5032788;28;20576;-48
2022/04/09 04:49:55;;;;;;;10.37;0.80;;;3.20;99.90;;;;;;5042828;28;20073;-48
2022/04/09 04:52:20;;;;;;;4.30;0.50;;;3.20;99.90;;;;;;5051095;28;20490;-48
2022/04/09 04:54:46;;;;;;;4.57;0.40;;;3.10;99.90;;;;;;5037348;28;20037;-49
2022/04/09 04:57:11;;;;;;;4.57;0.87;;;3.10;99.90;;;;;;5032421;28;20550;-49
2022/04/09 04:59:38;;;;;;;6.73;0.70;;;3.10;99.90;;;;;;5044280;28;20048;-48
2022/04/09 05:02:03;;;;;;;6.47;0.60;;;3.00;99.90;;;;;;5046517;28;20041;-48
2022/04/09 05:04:29;;;;;;;9.17;0.97;;;3.00;99.90;;;;;;5032178;28;20033;-48
2022/04/09 05:06:55;;;;;;;4.88;0.70;;;3.10;99.90;;;;;;5036647;28;20032;-51
2022/04/09 05:09:21;;;;;;;7.85;0.60;;;3.10;99.90;;;;;;5052239;28;20043;-48
2022/04/09 05:11:47;;;;;;;7.20;0.60;;;3.10;99.90;;;;;;5050884;28;20037;-50
2022/04/09 05:14:13;;;;;;;3.88;0.40;;;3.10;99.90;;;;;;5052638;28;20044;-49
2022/04/09 05:16:38;;;;;;;8.82;1.73;;;3.10;99.90;;;;;;5038487;28;20128;-50
2022/04/09 05:19:04;;;;;;;8.80;0.60;;;3.10;99.90;;;;;;5032360;28;20049;-48
2022/04/09 05:21:30;;;;;;;6.60;0.82;;;3.10;99.90;;;;;;5043746;28;20098;-48
2022/04/09 05:23:55;;;;;;;3.43;0.50;;;3.20;99.90;;;;;;5050278;28;20052;-48
2022/04/09 05:26:21;;;;;;;12.60;0.87;;;3.20;99.90;;;;;;5041707;28;20045;-50
2022/04/09 05:28:53;;;;;;;5.20;0.83;;;3.30;99.90;;;;;;5032179;28;20545;-48
2022/04/09 05:31:20;;;;;;;8.77;0.82;;;3.40;99.90;;;;;;5049836;28;20057;-48
2022/04/09 05:33:46;;;;;;;12.63;1.95;;;3.40;99.90;;;;;;5042703;28;20056;-49
2022/04/09 05:36:11;;;;;;;9.20;1.00;;;3.50;99.90;;;;;;5031830;28;20546;-48
2022/04/09 05:38:37;;;;;;;10.37;0.67;;;3.60;99.90;;;;;;5037523;28;20040;-48
2022/04/09 05:41:02;;;;;;;2.93;0.80;;;3.60;99.90;;;;;;5050576;28;20045;-50
2022/04/09 05:43:29;;;;;;;11.50;1.20;;;3.70;99.90;;;;;;5050463;28;20060;-48
2022/04/09 05:45:55;;;;;;;7.88;0.65;;;3.70;99.90;;;;;;5051700;28;20248;-48
2022/04/09 05:48:20;;;;;;;7.33;0.90;;;3.70;99.90;;;;;;5040694;28;20487;-49
2022/04/09 05:50:46;;;;;;;8.33;0.70;;;3.80;99.90;;;;;;5037040;28;20043;-48
2022/04/09 05:53:11;;;;;;;10.63;2.10;;;3.80;99.90;;;;;;5051473;28;20037;-48
2022/04/09 05:55:37;;;;;;;7.83;0.77;;;3.80;99.90;;;;;;5034734;28;20049;-48
2022/04/09 05:58:02;;;;;;;8.97;0.97;;;3.90;99.90;;;;;;5031824;28;20140;-48
2022/04/09 06:00:28;;;;;;;8.70;0.77;;;4.00;99.90;;;;;;5046116;28;20052;-49
2022/04/09 06:02:54;;;;;;;3.33;0.50;;;4.10;99.90;;;;;;5051857;28;20379;-48
2022/04/09 06:05:20;;;;;;;5.70;1.17;;;4.20;99.90;;;;;;5048313;28;20033;-49
2022/04/09 06:07:45;;;;;;;6.38;0.60;;;4.30;99.90;;;;;;5044506;28;20034;-48
2022/04/09 06:10:14;;;;;;;14.90;0.90;;;4.40;99.90;;;;;;5031653;28;20091;-48
2022/04/09 06:12:39;;;;;;;6.07;0.50;;;4.50;99.90;;;;;;5036216;28;20033;-48
2022/04/09 06:15:05;;;;;;;9.13;0.70;;;4.60;99.90;;;;;;5048707;28;20041;-48
2022/04/09 06:17:31;;;;;;;9.55;2.88;;;4.70;99.90;;;;;;5048444;28;20112;-48
2022/04/09 06:19:57;;;;;;;7.78;0.90;;;4.80;99.90;;;;;;5031615;28;20112;-48
2022/04/09 06:22:22;;;;;;;6.30;2.07;;;4.90;99.90;;;;;;5051418;28;20091;-48
2022/04/09 06:24:48;;;;;;;5.37;1.27;;;5.00;99.90;;;;;;5036429;28;20037;-50
2022/04/09 06:27:13;;;;;;;11.60;0.70;;;5.10;99.90;;;;;;5032281;28;20062;-48
2022/04/09 06:29:39;;;;;;;6.17;0.50;;;5.10;99.90;;;;;;5043603;28;20402;-49
2022/04/09 06:32:05;;;;;;;5.07;0.70;;;5.10;99.90;;;;;;5050945;28;20120;-48
2022/04/09 06:34:31;;;;;;;3.30;0.52;;;5.10;99.90;;;;;;5040514;28;20136;-48
2022/04/09 06:36:57;;;;;;;7.30;0.90;;;5.10;99.90;;;;;;5031342;28;20116;-47
2022/04/09 06:39:23;;;;;;;4.90;1.13;;;5.10;99.90;;;;;;5033271;28;20115;-48
2022/04/09 06:41:49;;;;;;;3.03;0.65;;;5.10;99.90;;;;;;5050595;28;20048;-50
2022/04/09 06:44:16;;;;;;;6.80;0.85;;;5.20;99.90;;;;;;5049712;28;20049;-48
2022/04/09 06:46:43;;;;;;;10.32;0.88;;;5.20;99.90;;;;;;5030998;28;20041;-49
2022/04/09 06:49:15;;;;;;;6.43;0.85;;;5.30;99.90;;;;;;5030863;28;20463;-49
2022/04/09 06:51:41;;;;;;;9.07;0.63;;;5.40;99.90;;;;;;5029711;28;20037;-49
2022/04/09 06:54:07;;;;;;;8.70;1.13;;;5.50;99.90;;;;;;5029624;28;20048;-48
2022/04/09 06:56:32;;;;;;;7.87;0.80;;;5.60;99.90;;;;;;5048342;28;20044;-48
2022/04/09 06:58:58;;;;;;;8.13;1.13;;;5.60;99.90;;;;;;5031428;28;20041;-49
2022/04/09 07:01:25;;;;;;;10.20;1.27;;;5.70;99.90;;;;;;5031977;28;20069;-48
2022/04/09 07:03:51;;;;;;;5.97;0.80;;;5.70;99.90;;;;;;5030630;28;20321;-49
2022/04/09 07:06:17;;;;;;;7.50;1.70;;;5.80;99.90;;;;;;5034972;28;20037;-48
2022/04/09 07:08:43;;;;;;;9.38;1.17;;;5.90;99.90;;;;;;5033844;28;20449;-49
2022/04/09 07:11:08;;;;;;;9.63;0.90;;;6.10;99.90;;;;;;5038142;28;20038;-49
2022/04/09 07:13:34;;;;;;;9.17;1.10;;;6.20;99.90;;;;;;5038307;28;20374;-49
2022/04/09 07:15:59;;;;;;;6.63;0.93;;;6.30;99.90;;;;;;5031540;28;20045;-50
2022/04/09 07:18:25;;;;;;;13.93;1.40;;;6.50;99.90;;;;;;5036498;28;20064;-49
2022/04/09 07:20:50;;;;;;;7.93;0.97;;;6.60;99.90;;;;;;5049538;28;20041;-49
2022/04/09 07:23:16;;;;;;;11.77;1.03;;;6.70;99.90;;;;;;5049418;28;20417;-48
2022/04/09 07:25:44;;;;;;;8.37;0.93;;;6.90;99.90;;;;;;5049770;28;20045;-48
2022/04/09 07:28:10;;;;;;;11.20;1.98;;;7.00;99.90;;;;;;5040186;28;20057;-50
2022/04/09 07:30:36;;;;;;;6.70;0.50;;;7.10;99.90;;;;;;5030336;28;20037;-50
2022/04/09 07:33:02;;;;;;;10.00;1.10;;;7.20;99.90;;;;;;5031354;28;20030;-50
2022/04/09 07:35:28;;;;;;;5.40;0.52;;;7.20;99.90;;;;;;5028453;28;20045;-48
2022/04/09 07:37:55;;;;;;;6.10;1.33;;;7.20;99.90;;;;;;5044107;28;20485;-49
2022/04/09 07:40:29;;;;;;;10.93;0.50;;;7.30;99.90;;;;;;5040572;28;20052;-49
2022/04/09 07:42:57;;;;;;;8.57;1.30;;;7.20;99.90;;;;;;5029800;28;20423;-49
2022/04/09 07:45:24;;;;;;;10.05;0.68;;;7.20;99.90;;;;;;5036590;28;20048;-49
2022/04/09 07:47:54;;;;;;;8.45;1.00;;;7.20;99.90;;;;;;5039740;28;20068;-49
2022/04/09 07:50:20;;;;;;;7.60;0.57;;;7.20;99.90;;;;;;5031225;28;20041;-47
2022/04/09 07:52:45;;;;;;;6.47;0.60;;;7.10;99.90;;;;;;5030351;28;20033;-51
2022/04/09 07:55:16;;;;;;;12.87;2.47;;;7.20;99.90;;;;;;5037300;28;20040;-48
2022/04/09 07:57:47;;;;;;;8.85;1.00;;;7.30;99.90;;;;;;5042652;28;20045;-47
2022/04/09 08:00:14;;;;;;;12.40;1.48;;;7.40;99.90;;;;;;5028790;28;20045;-51
2022/04/09 08:02:40;;;;;;;11.50;1.35;;;7.50;99.90;;;;;;5030686;28;20045;-50
2022/04/09 08:05:06;;;;;;;7.30;1.33;;;7.60;99.90;;;;;;5030110;28;20038;-51
2022/04/09 08:07:31;;;;;;;16.05;2.63;;;7.80;99.90;;;;;;5047428;28;20567;-50
2022/04/09 08:09:57;;;;;;;9.20;1.37;;;7.80;99.90;;;;;;5035793;28;20069;-49
2022/04/09 08:12:22;;;;;;;8.60;1.03;;;7.90;99.90;;;;;;5045218;28;20530;-47
2022/04/09 08:14:48;;;;;;;10.83;1.43;;;8.00;99.90;;;;;;5029616;28;20042;-47
2022/04/09 08:17:14;;;;;;;11.27;2.70;;;8.10;99.90;;;;;;5029605;28;20034;-46
2022/04/09 08:19:39;;;;;;;5.83;1.20;;;8.10;99.90;;;;;;5049767;28;20422;-46
2022/04/09 08:22:06;;;;;;;8.02;0.52;;;8.00;99.90;;;;;;5048375;28;20076;-47
2022/04/09 08:24:32;;;;;;;6.38;0.60;;;7.90;99.90;;;;;;5030132;28;20030;-51
2022/04/09 08:26:58;;;;;;;12.98;0.65;;;7.80;99.90;;;;;;5029381;28;20201;-47
2022/04/09 08:29:24;;;;;;;6.68;1.23;;;7.70;99.90;;;;;;5047405;28;20068;-47
2022/04/09 08:31:50;;;;;;;8.07;1.13;;;7.60;99.90;;;;;;5049111;28;20108;-47
2022/04/09 08:34:17;;;;;;;10.07;0.68;;;7.70;99.90;;;;;;5032226;28;20570;-47
2022/04/09 08:36:44;;;;;;;5.50;0.80;;;7.80;99.90;;;;;;5042896;28;20037;-48
2022/04/09 08:39:10;;;;;;;7.57;0.63;;;7.90;99.90;;;;;;5042506;28;20301;-49
2022/04/09 08:41:37;;;;;;;9.93;0.75;;;8.00;99.90;;;;;;5044049;28;20462;-47
2022/04/09 08:44:03;;;;;;;9.45;0.60;;;8.10;99.90;;;;;;5041188;28;20037;-47
2022/04/09 08:46:29;;;;;;;7.82;0.70;;;8.20;99.90;;;;;;5042158;28;20516;-47
2022/04/09 08:48:57;;;;;;;;;;;8.20;99.90;;;;;;5042007;28;20045;-48
2022/04/09 08:51:23;;;;;;;;;;;8.20;99.90;;;;;;5044161;28;20278;-47
2022/04/09 08:53:50;;;;;;;7.68;0.70;;;8.30;99.90;;;;;;5042348;28;19992;-48
2022/04/09 08:56:18;;;;;;;3.05;0.30;;;8.40;99.90;;;;;;5040603;28;20045;-48
2022/04/09 08:58:44;;;;;;;8.10;0.55;;;8.40;99.90;;;;;;5041662;28;20521;-48
2022/04/09 09:01:10;;;;;;;4.57;0.50;;;8.50;99.90;;;;;;5041151;28;20045;-48
2022/04/09 09:03:35;;;;;;;8.73;0.80;;;8.60;99.90;;;;;;5040329;28;20493;-47
2022/04/09 09:06:21;;;;;;;4.23;0.57;;;8.70;99.90;;;;;;5042726;28;20179;-48
2022/04/09 09:08:47;;;;;;;5.95;0.80;;;8.70;99.90;;;;;;5041768;28;20271;-49
2022/04/09 09:11:13;;;;;;;4.72;0.73;;;8.70;99.90;;;;;;5042342;28;20041;-50
2022/04/09 09:13:46;;;;;;;5.90;0.60;;;8.80;99.90;;;;;;5041179;28;20117;-50
2022/04/09 09:16:27;;;;;;;5.65;0.65;;;8.80;99.90;;;;;;5041450;28;20379;-48
2022/04/09 09:18:58;;;;;;;1.58;0.30;;;8.80;99.90;;;;;;5041100;28;20068;-47
2022/04/09 09:21:26;;;;;;;4.20;0.38;;;8.90;99.90;;;;;;5040257;28;20122;-48
2022/04/09 09:24:07;;;;;;;10.43;0.65;;;8.80;99.90;;;;;;5042723;28;20418;-48
2022/04/09 09:26:38;;;;;;;5.57;0.85;;;8.70;99.90;;;;;;5032186;28;20045;-49
2022/04/09 09:29:03;;;;;;;8.95;0.73;;;8.70;99.90;;;;;;5043852;28;20025;-51
2022/04/09 09:31:56;;;;;;;4.60;0.60;;;8.80;99.90;;;;;;5049165;28;20456;-50
2022/04/09 09:34:22;;;;;;;4.20;0.57;;;9.10;99.90;;;;;;5027827;28;20103;-51
2022/04/09 09:36:49;;;;;;;3.28;0.40;;;9.30;99.90;;;;;;5035519;28;20075;-50
2022/04/09 09:39:20;;;;;;;;;;;9.50;99.90;;;;;;5050502;28;20044;-51
2022/04/09 09:42:04;;;;;;;3.92;0.30;;;9.60;99.90;;;;;;5049086;28;20055;-52
2022/04/09 09:44:34;;;;;;;3.28;0.30;;;9.70;99.90;;;;;;5031954;28;20037;-52
2022/04/09 09:47:08;;;;;;;0.98;0.20;;;9.80;99.90;;;;;;5034730;28;20095;-50
2022/04/09 09:49:37;;;;;;;3.92;0.43;;;10.00;99.90;;;;;;5042684;28;20594;-51
2022/04/09 09:52:08;;;;;;;4.68;0.30;;;9.80;99.90;;;;;;5032816;28;20030;-51
2022/04/09 09:54:52;;;;;;;5.70;0.35;;;9.70;99.90;;;;;;5031796;28;20059;-49
2022/04/09 09:57:20;;;;;;;5.00;0.30;;;9.70;99.90;;;;;;5039013;28;20044;-53
2022/04/09 09:59:46;;;;;;;4.78;0.40;;;9.70;99.90;;;;;;5044015;28;20034;-53
2022/04/09 10:02:14;;;;;;;;;;;9.90;99.90;;;;;;5030570;28;20045;-48
2022/04/09 10:04:39;;;;;;;6.82;0.60;;;10.00;99.90;;;;;;5036594;28;20398;-50
2022/04/09 10:07:05;;;;;;;5.57;0.97;;;10.00;99.90;;;;;;5051407;28;20128;-52
2022/04/09 10:09:30;;;;;;;3.70;0.97;;;10.10;99.50;;;;;;5033737;28;20034;-49
2022/04/09 10:11:58;;;;;;;4.47;0.20;;;10.20;99.80;;;;;;5031695;28;20044;-52
2022/04/09 10:14:28;;;;;;;3.05;0.28;;;10.30;98.70;;;;;;5043058;28;20041;-49
2022/04/09 10:16:55;;;;;;;8.10;1.30;;;10.40;98.80;;;;;;5048083;28;20572;-50
2022/04/09 10:19:22;;;;;;;13.27;0.70;;;10.50;98.30;;;;;;5050288;28;20037;-53
2022/04/09 10:21:50;;;;;;;8.75;0.95;;;10.60;97.50;;;;;;5049671;28;20049;-50
2022/04/09 10:24:23;;;;;;;8.13;0.98;;;10.60;97.90;;;;;;5051064;28;20457;-49
2022/04/09 10:26:49;;;;;;;5.32;0.30;;;10.50;98.70;;;;;;5036268;28;20041;-49
2022/04/09 10:29:15;;;;;;;2.83;0.73;;;10.20;99.00;;;;;;5030551;28;20128;-49
2022/04/09 10:31:41;;;;;;;7.72;0.80;;;9.90;98.70;;;;;;5048616;28;20815;-50
2022/04/09 10:34:10;;;;;;;5.45;0.70;;;9.70;99.20;;;;;;5051134;28;20041;-49
2022/04/09 10:36:45;;;;;;;8.95;0.40;;;9.60;99.90;;;;;;5030879;28;20517;-49
2022/04/09 10:39:21;;;;;;;8.05;0.75;;;9.60;99.90;;;;;;5030447;28;20511;-49
2022/04/09 10:41:54;;;;;;;6.95;0.70;;;9.60;99.90;;;;;;5032021;28;20033;-49
2022/04/09 10:44:44;;;;;;;4.72;0.57;;;9.80;99.90;;;;;;5044366;28;20033;-49
2022/04/09 10:47:13;;;;;;;3.47;0.43;;;10.00;99.90;;;;;;5036637;28;20056;-49
2022/04/09 10:49:40;;;;;;;5.82;0.50;;;10.20;99.90;;;;;;5030456;28;20046;-49
2022/04/09 10:52:14;;;;;;;5.95;0.88;;;10.20;99.90;;;;;;5042799;28;20041;-49
2022/04/09 10:54:58;;;;;;;6.80;0.35;;;10.10;99.90;;;;;;5050410;28;20494;-49
2022/04/09 10:57:24;;;;;;;10.32;0.98;;;9.90;99.90;;;;;;5048652;28;20029;-49
2022/04/09 10:59:58;;;;;;;2.10;0.67;;;9.50;99.90;;;;;;5045336;28;20037;-48
2022/04/09 11:02:25;;;;;;;4.20;0.30;;;9.10;99.90;;;;;;5040859;28;20435;-48
2022/04/09 11:04:52;;;;;;;3.22;0.20;;;8.50;99.90;;;;;;5030425;28;20410;-48
2022/04/09 11:07:22;;;;;;;3.13;0.38;;;8.10;99.90;;;;;;5038719;28;20120;-47
2022/04/09 11:10:01;;;;;;;3.90;0.30;;;7.90;99.90;;;;;;5050519;28;20041;-49
2022/04/09 11:12:38;;;;;;;4.40;0.60;;;7.60;99.90;;;;;;5035369;28;20125;-49
2022/04/09 11:15:09;;;;;;;4.55;0.20;;;7.60;99.90;;;;;;5030473;28;20042;-50
2022/04/09 11:17:45;;;;;;;3.83;0.30;;;7.50;99.90;;;;;;5031363;28;20521;-48
2022/04/09 11:20:13;;;;;;;1.38;0.15;;;7.30;99.90;;;;;;5031689;28;20047;-47
2022/04/09 11:22:47;;;;;;;0.20;0.10;;;7.20;99.90;;;;;;5030415;28;20442;-51
2022/04/09 11:25:28;;;;;;;2.00;0.13;;;7.00;99.90;;;;;;5036672;28;20055;-48
2022/04/09 11:28:10;;;;;;;0.68;0.20;;;6.90;99.90;;;;;;5026305;28;20044;-48
2022/04/09 11:30:36;;;;;;;3.85;1.95;;;6.80;99.90;;;;;;5049439;28;20460;-49
2022/04/09 11:33:02;;;;;;;1.20;0.20;;;6.80;99.90;;;;;;5044078;28;20040;-51
2022/04/09 11:35:33;;;;;;;2.57;0.20;;;6.80;99.90;;;;;;5026916;28;20045;-49
2022/04/09 11:37:59;;;;;;;2.38;0.20;;;6.90;99.90;;;;;;5026708;28;20045;-50
2022/04/09 11:40:25;;;;;;;2.53;0.57;;;7.20;99.90;;;;;;5025319;28;20108;-49
2022/04/09 11:42:51;;;;;;;3.20;0.20;;;7.50;99.90;;;;;;5037619;28;20044;-50
2022/04/09 11:45:21;;;;;;;1.48;0.40;;;7.80;99.90;;;;;;5045462;28;20485;-49
2022/04/09 11:47:47;;;;;;;2.55;0.22;;;7.90;99.90;;;;;;5035046;28;20373;-49
2022/04/09 11:50:16;;;;;;;2.42;0.30;;;8.10;99.90;;;;;;5029998;28;20033;-50
2022/04/09 11:52:42;;;;;;;4.32;0.30;;;8.20;99.90;;;;;;5044879;28;20413;-50
2022/04/09 11:55:12;;;;;;;1.77;0.50;;;8.30;99.90;;;;;;5030360;28;20033;-50
2022/04/09 11:57:38;;;;;;;1.70;0.22;;;8.40;99.90;;;;;;5025458;28;20033;-49
2022/04/09 12:00:06;;;;;;;4.60;0.55;;;8.40;99.90;;;;;;5025721;28;20061;-49
2022/04/09 12:02:32;;;;;;;3.75;0.40;;;8.20;99.90;;;;;;5041587;28;20470;-47
2022/04/09 12:04:58;;;;;;;3.03;0.60;;;8.30;99.90;;;;;;5040975;28;20147;-49
2022/04/09 12:07:26;;;;;;;;;;;8.30;99.90;;;;;;5028658;28;20049;-51
2022/04/09 12:09:53;;;;;;;8.68;0.75;;;8.50;99.90;;;;;;5028165;28;19990;-52
2022/04/09 12:12:19;;;;;;;2.88;0.22;;;8.50;99.90;;;;;;5025409;28;20112;-48
2022/04/09 12:14:57;;;;;;;2.70;0.20;;;8.50;99.90;;;;;;5045863;28;20558;-49
2022/04/09 12:17:30;;;;;;;;;;;8.30;99.90;;;;;;5049600;28;20037;-50
2022/04/09 12:19:55;;;;;;;2.10;0.22;;;8.20;99.90;;;;;;5030455;28;19964;-51
2022/04/09 12:22:23;;;;;;;1.30;0.30;;;8.20;99.90;;;;;;5028199;28;20432;-50
2022/04/09 12:24:50;;;;;;;2.25;0.30;;;8.30;99.90;;;;;;5045148;28;20049;-51
2022/04/09 12:27:16;;;;;;;1.90;0.20;;;8.50;99.90;;;;;;5047868;28;20045;-50
2022/04/09 12:29:53;;;;;;;5.20;0.35;;;8.70;99.90;;;;;;5045204;28;20039;-52
2022/04/09 12:32:26;;;;;;;1.27;0.40;;;8.80;99.90;;;;;;5041234;28;20072;-50
2022/04/09 12:34:55;;;;;;;1.17;0.10;;;8.80;99.90;;;;;;5028831;28;20034;-49
2022/04/09 12:37:21;;;;;;;2.47;0.20;;;8.90;99.90;;;;;;5030548;28;20570;-50
2022/04/09 12:39:47;;;;;;;3.17;0.20;;;9.00;99.90;;;;;;5034865;28;20154;-49
2022/04/09 12:42:12;;;;;;;1.33;0.20;;;9.10;99.90;;;;;;5029648;28;20083;-49
2022/04/09 12:44:38;;;;;;;4.23;0.20;;;9.00;99.90;;;;;;5027610;28;20046;-49
2022/04/09 12:47:05;;;;;;;1.13;0.40;;;8.80;99.90;;;;;;5036820;28;20069;-49
2022/04/09 12:49:33;;;;;;;3.22;0.20;;;8.80;99.90;;;;;;5047286;28;20437;-48
2022/04/09 12:51:59;;;;;;;3.88;0.22;;;8.90;99.90;;;;;;5041705;28;20123;-49
2022/04/09 12:54:27;;;;;;;4.32;0.30;;;9.10;99.90;;;;;;5028493;28;20536;-51
2022/04/09 12:56:53;;;;;;;4.72;0.40;;;9.20;99.90;;;;;;5032496;28;20033;-49
2022/04/09 12:59:18;;;;;;;6.35;0.73;;;9.40;99.90;;;;;;5046215;28;20632;-49